Woodsville, New Hampshire
Current Conditions -  °F | °C
As of 7:51 PM on Thursday 18 Dec 2014 (Local Time) from KMPV Reporting Station
Overcast Overcast  
Wind Chill: 17°   Ceiling: 1200
Heat Index: 27°   Visibility: 7mi
Dew Point: 24°   Wind: 12mph
Humidity: 89%   Direction: 300°WNW
Pressure: 29.89"   Gusts: 21mph
Location:  44.15°N, 72.04°W
Report Text: KMPV 190051Z AUTO 30010G18KT 7SM OVC012 M03/M04 A2989 RMK AO2 UPB2358E19FZRAB19E29 SLP138 P0000 I1001 T10281044
Loading
Personal Weather Stations






























Interactive Weather Map New forecast layout! Learn more

10-Day Weather Forecast

Advertisements
Track Severe Weather on mobile